Flight Track Log - Related Links

Times and Time Zones

All times are in EDT time to prevent confusion due to time zone crossing. See the N2145M flight status page for this flight to view local times or setup timezone preferences in your user account.

Time Position Orientation Groundspeed Altitude Reporting Facility
EDT Latitude Longitude Course Direction KTS MPH feet Rate Location/Type
Thu 05:52:49 PM 42.4833 -71.2333 56° Northeast 105 121 1,400  Level Boston TRACON
Thu 05:54:07 PM 42.5000 -71.2000 20° North 105 121 2,100 500 Climbing Boston TRACON
Thu 05:55:01 PM 42.5333 -71.1833 20° North 107 123 2,500 474 Climbing Boston TRACON
Thu 05:56:01 PM 42.5667 -71.1667 36° Northeast 107 123 3,000 316 Climbing Boston TRACON
Thu 05:56:55 PM 42.5833 -71.1500 20° North 114 131 3,100 50 Climbing Boston TRACON
Thu 05:58:01 PM 42.6167 -71.1333 20° North 128 147 3,100 -48 Level Boston TRACON
Thu 05:59:01 PM 42.6500 -71.1167 20° North 129 148 3,000 -50 Descending Boston TRACON
Thu 06:00:01 PM 42.6833 -71.1000 360° North 125 144 3,000 50 Level Boston TRACON
Thu 06:01:02 PM 42.7167 -71.1000 20° North 123 142 3,100 50 Climbing Boston TRACON
Thu 06:02:02 PM 42.7500 -71.0833 56° Northeast 137 158 3,100 336 Level Boston TRACON
Thu 06:03:07 PM 42.7667 -71.0500 20° North 87 100 3,800 571 Climbing Boston TRACON
Thu 06:04:08 PM 42.8000 -71.0333 36° Northeast 90 104 4,300 198 Climbing Boston TRACON
Thu 06:05:08 PM 42.8167 -71.0167 360° North 84 97 4,200 100 Descending Boston TRACON
Thu 06:06:08 PM 42.8333 -71.0167 90° East 71 82 4,500 200 Climbing Boston TRACON
Thu 06:07:08 PM 42.8333 -71.0000 216° Southwest 93 107 4,600 -53 Climbing Boston TRACON
Thu 06:08:02 PM 42.8167 -71.0167 216° Southwest 112 129 4,400 -300 Descending Boston TRACON
Thu 06:09:08 PM 42.7833 -71.0500 216° Southwest 121 139 4,000 -400 Descending Boston TRACON
Thu 06:10:02 PM 42.7667 -71.0667 236° Southwest 124 143 3,600 -263 Descending Boston TRACON
Thu 06:11:02 PM 42.7500 -71.1000 360° North 103 119 3,500  Descending Boston TRACON
Thu 06:12:02 PM 42.7500 -71.1000 36° Northeast 103 119 3,600 53 Climbing Boston TRACON
Thu 06:12:56 PM 42.7667 -71.0833 20° North 100 115 3,600 100 Level Boston TRACON
Thu 06:14:02 PM 42.8000 -71.0667 36° Northeast 107 123 3,800 238 Climbing Boston TRACON
Thu 06:15:02 PM 42.8167 -71.0500 90° East 110 127 4,100 211 Climbing Boston TRACON
Thu 06:15:56 PM 42.8167 -71.0167 200° South 114 131 4,200 105 Climbing Boston TRACON
Thu 06:16:56 PM 42.7833 -71.0333 236° Southwest 110 127 4,300 -48 Climbing Boston TRACON
Thu 06:18:02 PM 42.7667 -71.0667 236° Southwest 109 125 4,100 -94 Descending Boston TRACON
Thu 06:19:03 PM 42.7500 -71.1000 270° West 106 122 4,100 -99 Level Boston TRACON
Thu 06:20:03 PM 42.7500 -71.1167 144° Southeast 113 130 3,900 50 Descending Boston TRACON
Thu 06:21:03 PM 42.7333 -71.1000 236° Southwest 106 122 4,200 250 Climbing Boston TRACON
Thu 06:22:03 PM 42.7167 -71.1333 36° Northeast 106 122 4,400 -50 Climbing Boston TRACON
Thu 06:23:03 PM 42.7333 -71.1167 36° Northeast 121 139 4,100 -300 Descending Boston TRACON

Login

Don't have an account? Register now (free) for customized features, flight alerts, and more!